sensor_id;sensor_type;location;lat;lon;timestamp;P1;durP1;ratioP1;P2;durP2;ratioP2
56181;SDS011;51963;46.052;14.544;2023-05-10T00:01:46;7.05;;;4.85;;
56181;SDS011;51963;46.052;14.544;2023-05-10T00:04:12;6.30;;;4.10;;
56181;SDS011;51963;46.052;14.544;2023-05-10T00:06:37;7.35;;;4.07;;
56181;SDS011;51963;46.052;14.544;2023-05-10T00:09:03;7.55;;;4.80;;
56181;SDS011;51963;46.052;14.544;2023-05-10T00:11:29;7.47;;;4.60;;
56181;SDS011;51963;46.052;14.544;2023-05-10T00:13:55;6.93;;;4.28;;
56181;SDS011;51963;46.052;14.544;2023-05-10T00:16:20;7.18;;;4.22;;
56181;SDS011;51963;46.052;14.544;2023-05-10T00:18:46;7.60;;;4.50;;
56181;SDS011;51963;46.052;14.544;2023-05-10T00:21:12;8.30;;;4.43;;
56181;SDS011;51963;46.052;14.544;2023-05-10T00:23:37;8.75;;;4.40;;
56181;SDS011;51963;46.052;14.544;2023-05-10T00:26:03;7.78;;;4.45;;
56181;SDS011;51963;46.052;14.544;2023-05-10T00:28:29;5.88;;;3.88;;
56181;SDS011;51963;46.052;14.544;2023-05-10T00:30:55;8.00;;;4.72;;
56181;SDS011;51963;46.052;14.544;2023-05-10T00:33:21;8.70;;;4.57;;
56181;SDS011;51963;46.052;14.544;2023-05-10T00:35:47;7.88;;;5.10;;
56181;SDS011;51963;46.052;14.544;2023-05-10T00:38:14;8.50;;;4.75;;
56181;SDS011;51963;46.052;14.544;2023-05-10T00:40:40;8.65;;;4.65;;
56181;SDS011;51963;46.052;14.544;2023-05-10T00:43:13;8.40;;;4.82;;
56181;SDS011;51963;46.052;14.544;2023-05-10T00:45:39;8.63;;;4.95;;
56181;SDS011;51963;46.052;14.544;2023-05-10T00:48:06;7.78;;;4.50;;
56181;SDS011;51963;46.052;14.544;2023-05-10T00:50:32;7.63;;;4.97;;
56181;SDS011;51963;46.052;14.544;2023-05-10T00:52:59;9.50;;;4.82;;
56181;SDS011;51963;46.052;14.544;2023-05-10T00:55:25;6.97;;;4.32;;
56181;SDS011;51963;46.052;14.544;2023-05-10T00:57:52;7.25;;;4.65;;
56181;SDS011;51963;46.052;14.544;2023-05-10T01:00:18;7.93;;;4.40;;
56181;SDS011;51963;46.052;14.544;2023-05-10T01:02:44;6.65;;;4.57;;
56181;SDS011;51963;46.052;14.544;2023-05-10T01:05:11;8.15;;;4.57;;
56181;SDS011;51963;46.052;14.544;2023-05-10T01:07:37;12.80;;;7.90;;
56181;SDS011;51963;46.052;14.544;2023-05-10T01:10:04;7.00;;;4.60;;
56181;SDS011;51963;46.052;14.544;2023-05-10T01:12:31;8.23;;;4.68;;
56181;SDS011;51963;46.052;14.544;2023-05-10T01:14:59;8.82;;;4.93;;
56181;SDS011;51963;46.052;14.544;2023-05-10T01:17:26;7.45;;;4.35;;
56181;SDS011;51963;46.052;14.544;2023-05-10T01:19:52;7.00;;;4.53;;
56181;SDS011;51963;46.052;14.544;2023-05-10T01:28:07;6.47;;;4.30;;
56181;SDS011;51963;46.052;14.544;2023-05-10T01:33:38;8.82;;;4.53;;
56181;SDS011;51963;46.052;14.544;2023-05-10T01:36:10;8.60;;;4.90;;
56181;SDS011;51963;46.052;14.544;2023-05-10T01:38:55;8.70;;;5.22;;
56181;SDS011;51963;46.052;14.544;2023-05-10T01:47:04;8.43;;;4.30;;
56181;SDS011;51963;46.052;14.544;2023-05-10T01:49:36;8.07;;;4.97;;
56181;SDS011;51963;46.052;14.544;2023-05-10T01:52:09;5.97;;;4.22;;
56181;SDS011;51963;46.052;14.544;2023-05-10T01:54:41;8.23;;;5.30;;
56181;SDS011;51963;46.052;14.544;2023-05-10T01:57:10;8.15;;;4.82;;
56181;SDS011;51963;46.052;14.544;2023-05-10T01:59:39;8.70;;;5.00;;
56181;SDS011;51963;46.052;14.544;2023-05-10T02:02:07;7.40;;;5.18;;
56181;SDS011;51963;46.052;14.544;2023-05-10T02:04:38;7.03;;;4.95;;
56181;SDS011;51963;46.052;14.544;2023-05-10T02:07:06;6.82;;;4.45;;
56181;SDS011;51963;46.052;14.544;2023-05-10T02:09:34;6.88;;;4.70;;
56181;SDS011;51963;46.052;14.544;2023-05-10T02:12:02;8.38;;;5.05;;
56181;SDS011;51963;46.052;14.544;2023-05-10T02:14:32;8.55;;;5.32;;
56181;SDS011;51963;46.052;14.544;2023-05-10T02:17:00;9.68;;;5.50;;
56181;SDS011;51963;46.052;14.544;2023-05-10T02:19:27;11.15;;;5.70;;
56181;SDS011;51963;46.052;14.544;2023-05-10T02:21:57;11.05;;;5.53;;
56181;SDS011;51963;46.052;14.544;2023-05-10T02:24:25;9.02;;;5.65;;
56181;SDS011;51963;46.052;14.544;2023-05-10T02:26:53;9.13;;;6.10;;
56181;SDS011;51963;46.052;14.544;2023-05-10T02:29:21;7.28;;;4.90;;
56181;SDS011;51963;46.052;14.544;2023-05-10T02:31:49;10.07;;;5.47;;
56181;SDS011;51963;46.052;14.544;2023-05-10T02:34:16;8.70;;;5.38;;
56181;SDS011;51963;46.052;14.544;2023-05-10T02:36:44;9.32;;;5.45;;
56181;SDS011;51963;46.052;14.544;2023-05-10T02:39:11;11.82;;;5.80;;
56181;SDS011;51963;46.052;14.544;2023-05-10T02:41:40;8.20;;;5.10;;
56181;SDS011;51963;46.052;14.544;2023-05-10T02:46:34;8.07;;;4.90;;
56181;SDS011;51963;46.052;14.544;2023-05-10T02:49:01;8.55;;;5.18;;
56181;SDS011;51963;46.052;14.544;2023-05-10T02:51:28;9.00;;;5.13;;
56181;SDS011;51963;46.052;14.544;2023-05-10T02:54:01;7.22;;;4.72;;
56181;SDS011;51963;46.052;14.544;2023-05-10T02:56:34;7.70;;;4.90;;
56181;SDS011;51963;46.052;14.544;2023-05-10T02:59:04;9.18;;;5.00;;
56181;SDS011;51963;46.052;14.544;2023-05-10T03:01:30;7.95;;;5.30;;
56181;SDS011;51963;46.052;14.544;2023-05-10T03:03:57;7.53;;;5.20;;
56181;SDS011;51963;46.052;14.544;2023-05-10T03:06:23;8.65;;;5.07;;
56181;SDS011;51963;46.052;14.544;2023-05-10T03:08:49;7.85;;;4.85;;
56181;SDS011;51963;46.052;14.544;2023-05-10T03:11:24;7.18;;;4.47;;
56181;SDS011;51963;46.052;14.544;2023-05-10T03:20:12;10.60;;;5.43;;
56181;SDS011;51963;46.052;14.544;2023-05-10T03:22:56;11.38;;;6.30;;
56181;SDS011;51963;46.052;14.544;2023-05-10T03:25:32;11.35;;;5.22;;
56181;SDS011;51963;46.052;14.544;2023-05-10T03:28:01;10.02;;;5.47;;
56181;SDS011;51963;46.052;14.544;2023-05-10T03:30:29;7.07;;;4.88;;
56181;SDS011;51963;46.052;14.544;2023-05-10T03:32:55;9.85;;;5.13;;
56181;SDS011;51963;46.052;14.544;2023-05-10T03:35:22;10.00;;;5.57;;
56181;SDS011;51963;46.052;14.544;2023-05-10T03:37:49;8.60;;;5.47;;
56181;SDS011;51963;46.052;14.544;2023-05-10T03:40:14;7.50;;;5.25;;
56181;SDS011;51963;46.052;14.544;2023-05-10T03:42:42;9.77;;;5.87;;
56181;SDS011;51963;46.052;14.544;2023-05-10T03:45:09;8.40;;;5.40;;
56181;SDS011;51963;46.052;14.544;2023-05-10T03:47:35;6.97;;;4.82;;
56181;SDS011;51963;46.052;14.544;2023-05-10T03:50:01;7.25;;;5.28;;
56181;SDS011;51963;46.052;14.544;2023-05-10T03:54:55;7.03;;;4.95;;
56181;SDS011;51963;46.052;14.544;2023-05-10T03:57:22;8.23;;;5.35;;
56181;SDS011;51963;46.052;14.544;2023-05-10T03:59:48;11.82;;;6.07;;
56181;SDS011;51963;46.052;14.544;2023-05-10T04:02:14;9.40;;;5.80;;
56181;SDS011;51963;46.052;14.544;2023-05-10T04:04:39;9.60;;;5.60;;
56181;SDS011;51963;46.052;14.544;2023-05-10T04:07:05;7.80;;;5.47;;
56181;SDS011;51963;46.052;14.544;2023-05-10T04:09:31;10.07;;;5.22;;
56181;SDS011;51963;46.052;14.544;2023-05-10T04:11:58;9.43;;;5.95;;
56181;SDS011;51963;46.052;14.544;2023-05-10T04:14:24;10.77;;;5.90;;
56181;SDS011;51963;46.052;14.544;2023-05-10T04:16:50;12.23;;;5.78;;
56181;SDS011;51963;46.052;14.544;2023-05-10T04:19:16;8.73;;;5.63;;
56181;SDS011;51963;46.052;14.544;2023-05-10T04:21:42;8.95;;;5.80;;
56181;SDS011;51963;46.052;14.544;2023-05-10T04:24:07;10.02;;;6.07;;
56181;SDS011;51963;46.052;14.544;2023-05-10T04:26:33;12.48;;;6.50;;
56181;SDS011;51963;46.052;14.544;2023-05-10T04:28:59;9.85;;;5.53;;
56181;SDS011;51963;46.052;14.544;2023-05-10T04:31:24;10.05;;;5.47;;
56181;SDS011;51963;46.052;14.544;2023-05-10T04:33:51;9.70;;;5.68;;
56181;SDS011;51963;46.052;14.544;2023-05-10T04:36:17;10.68;;;6.07;;
56181;SDS011;51963;46.052;14.544;2023-05-10T04:38:43;9.82;;;5.72;;
56181;SDS011;51963;46.052;14.544;2023-05-10T04:41:09;9.80;;;6.30;;
56181;SDS011;51963;46.052;14.544;2023-05-10T04:43:36;13.32;;;6.10;;
56181;SDS011;51963;46.052;14.544;2023-05-10T04:46:02;9.38;;;5.95;;
56181;SDS011;51963;46.052;14.544;2023-05-10T04:48:28;11.55;;;6.28;;
56181;SDS011;51963;46.052;14.544;2023-05-10T04:50:54;11.65;;;6.18;;
56181;SDS011;51963;46.052;14.544;2023-05-10T04:53:20;13.68;;;6.90;;
56181;SDS011;51963;46.052;14.544;2023-05-10T04:55:46;13.63;;;6.28;;
56181;SDS011;51963;46.052;14.544;2023-05-10T04:58:12;13.35;;;6.85;;
56181;SDS011;51963;46.052;14.544;2023-05-10T05:00:38;10.48;;;6.03;;
56181;SDS011;51963;46.052;14.544;2023-05-10T05:03:03;10.57;;;5.90;;
56181;SDS011;51963;46.052;14.544;2023-05-10T05:05:29;7.97;;;5.30;;
56181;SDS011;51963;46.052;14.544;2023-05-10T05:07:55;9.82;;;6.15;;
56181;SDS011;51963;46.052;14.544;2023-05-10T05:10:21;10.07;;;6.25;;
56181;SDS011;51963;46.052;14.544;2023-05-10T05:12:47;10.82;;;6.22;;
56181;SDS011;51963;46.052;14.544;2023-05-10T05:15:12;11.43;;;6.70;;
56181;SDS011;51963;46.052;14.544;2023-05-10T05:17:38;16.23;;;6.78;;
56181;SDS011;51963;46.052;14.544;2023-05-10T05:20:04;14.80;;;6.35;;
56181;SDS011;51963;46.052;14.544;2023-05-10T05:22:30;29.23;;;7.72;;
56181;SDS011;51963;46.052;14.544;2023-05-10T05:24:56;10.73;;;6.50;;
56181;SDS011;51963;46.052;14.544;2023-05-10T05:27:23;13.00;;;6.63;;
56181;SDS011;51963;46.052;14.544;2023-05-10T05:29:57;11.98;;;6.95;;
56181;SDS011;51963;46.052;14.544;2023-05-10T05:32:24;16.80;;;6.75;;
56181;SDS011;51963;46.052;14.544;2023-05-10T05:34:50;12.43;;;6.80;;
56181;SDS011;51963;46.052;14.544;2023-05-10T05:37:17;12.57;;;6.60;;
56181;SDS011;51963;46.052;14.544;2023-05-10T05:39:44;9.23;;;6.03;;
56181;SDS011;51963;46.052;14.544;2023-05-10T05:42:10;10.25;;;6.85;;
56181;SDS011;51963;46.052;14.544;2023-05-10T05:44:36;12.68;;;6.30;;
56181;SDS011;51963;46.052;14.544;2023-05-10T05:47:02;11.52;;;7.18;;
56181;SDS011;51963;46.052;14.544;2023-05-10T05:49:31;12.85;;;6.88;;
56181;SDS011;51963;46.052;14.544;2023-05-10T05:52:01;11.50;;;6.38;;
56181;SDS011;51963;46.052;14.544;2023-05-10T05:54:28;8.15;;;5.97;;
56181;SDS011;51963;46.052;14.544;2023-05-10T05:56:55;11.02;;;6.38;;
56181;SDS011;51963;46.052;14.544;2023-05-10T05:59:22;11.05;;;6.50;;
56181;SDS011;51963;46.052;14.544;2023-05-10T06:01:52;12.20;;;6.10;;
56181;SDS011;51963;46.052;14.544;2023-05-10T06:04:18;13.85;;;6.70;;
56181;SDS011;51963;46.052;14.544;2023-05-10T06:06:43;12.43;;;6.65;;
56181;SDS011;51963;46.052;14.544;2023-05-10T06:09:10;9.50;;;6.30;;
56181;SDS011;51963;46.052;14.544;2023-05-10T06:11:36;10.85;;;6.72;;
56181;SDS011;51963;46.052;14.544;2023-05-10T06:14:02;12.07;;;7.57;;
56181;SDS011;51963;46.052;14.544;2023-05-10T06:16:33;18.98;;;7.32;;
56181;SDS011;51963;46.052;14.544;2023-05-10T06:18:59;13.90;;;6.93;;
56181;SDS011;51963;46.052;14.544;2023-05-10T06:21:25;15.73;;;7.50;;
56181;SDS011;51963;46.052;14.544;2023-05-10T06:23:51;13.57;;;7.40;;
56181;SDS011;51963;46.052;14.544;2023-05-10T06:26:16;13.65;;;7.30;;
56181;SDS011;51963;46.052;14.544;2023-05-10T06:28:42;15.48;;;7.07;;
56181;SDS011;51963;46.052;14.544;2023-05-10T06:31:08;11.40;;;7.03;;
56181;SDS011;51963;46.052;14.544;2023-05-10T06:33:34;10.90;;;6.72;;
56181;SDS011;51963;46.052;14.544;2023-05-10T06:36:00;10.63;;;6.57;;
56181;SDS011;51963;46.052;14.544;2023-05-10T06:38:26;15.38;;;7.32;;
56181;SDS011;51963;46.052;14.544;2023-05-10T06:40:52;15.52;;;6.72;;
56181;SDS011;51963;46.052;14.544;2023-05-10T06:43:17;11.82;;;6.55;;
56181;SDS011;51963;46.052;14.544;2023-05-10T06:45:43;11.90;;;6.72;;
56181;SDS011;51963;46.052;14.544;2023-05-10T06:48:08;17.55;;;6.55;;
56181;SDS011;51963;46.052;14.544;2023-05-10T06:50:34;13.10;;;6.78;;
56181;SDS011;51963;46.052;14.544;2023-05-10T06:53:00;15.10;;;7.55;;
56181;SDS011;51963;46.052;14.544;2023-05-10T06:55:27;11.35;;;7.10;;
56181;SDS011;51963;46.052;14.544;2023-05-10T06:57:53;10.85;;;6.80;;
56181;SDS011;51963;46.052;14.544;2023-05-10T07:00:19;14.30;;;6.63;;
56181;SDS011;51963;46.052;14.544;2023-05-10T07:02:45;11.50;;;6.68;;
56181;SDS011;51963;46.052;14.544;2023-05-10T07:05:12;10.23;;;7.03;;
56181;SDS011;51963;46.052;14.544;2023-05-10T07:07:38;13.25;;;7.13;;
56181;SDS011;51963;46.052;14.544;2023-05-10T07:10:04;15.65;;;7.47;;
56181;SDS011;51963;46.052;14.544;2023-05-10T07:12:30;12.75;;;7.00;;
56181;SDS011;51963;46.052;14.544;2023-05-10T07:14:56;10.18;;;6.78;;
56181;SDS011;51963;46.052;14.544;2023-05-10T07:17:21;13.57;;;7.50;;
56181;SDS011;51963;46.052;14.544;2023-05-10T07:19:47;13.98;;;6.47;;
56181;SDS011;51963;46.052;14.544;2023-05-10T07:22:14;17.98;;;7.32;;
56181;SDS011;51963;46.052;14.544;2023-05-10T07:24:40;11.15;;;6.75;;
56181;SDS011;51963;46.052;14.544;2023-05-10T07:27:06;12.95;;;7.25;;
56181;SDS011;51963;46.052;14.544;2023-05-10T07:29:32;14.00;;;7.60;;
56181;SDS011;51963;46.052;14.544;2023-05-10T07:31:57;13.73;;;7.00;;
56181;SDS011;51963;46.052;14.544;2023-05-10T07:34:23;9.82;;;6.38;;
56181;SDS011;51963;46.052;14.544;2023-05-10T07:36:49;11.65;;;7.03;;
56181;SDS011;51963;46.052;14.544;2023-05-10T07:39:15;11.95;;;6.47;;
56181;SDS011;51963;46.052;14.544;2023-05-10T07:41:42;12.48;;;6.22;;
56181;SDS011;51963;46.052;14.544;2023-05-10T07:44:07;11.18;;;6.32;;
56181;SDS011;51963;46.052;14.544;2023-05-10T07:46:33;10.68;;;6.53;;
56181;SDS011;51963;46.052;14.544;2023-05-10T07:48:59;14.27;;;7.20;;
56181;SDS011;51963;46.052;14.544;2023-05-10T07:51:24;13.35;;;7.13;;
56181;SDS011;51963;46.052;14.544;2023-05-10T07:53:50;9.82;;;7.13;;
56181;SDS011;51963;46.052;14.544;2023-05-10T07:56:20;11.02;;;6.75;;
56181;SDS011;51963;46.052;14.544;2023-05-10T07:58:48;13.23;;;6.53;;
56181;SDS011;51963;46.052;14.544;2023-05-10T08:01:14;10.27;;;6.43;;
56181;SDS011;51963;46.052;14.544;2023-05-10T08:03:39;15.10;;;6.80;;
56181;SDS011;51963;46.052;14.544;2023-05-10T08:06:05;14.30;;;6.72;;
56181;SDS011;51963;46.052;14.544;2023-05-10T08:08:31;10.25;;;6.32;;
56181;SDS011;51963;46.052;14.544;2023-05-10T08:10:57;8.93;;;5.75;;
56181;SDS011;51963;46.052;14.544;2023-05-10T08:13:22;8.40;;;5.90;;
56181;SDS011;51963;46.052;14.544;2023-05-10T08:15:48;12.18;;;7.10;;
56181;SDS011;51963;46.052;14.544;2023-05-10T08:18:14;12.77;;;6.65;;
56181;SDS011;51963;46.052;14.544;2023-05-10T08:20:39;10.95;;;7.05;;
56181;SDS011;51963;46.052;14.544;2023-05-10T08:23:05;11.77;;;7.40;;
56181;SDS011;51963;46.052;14.544;2023-05-10T08:25:31;14.48;;;6.78;;
56181;SDS011;51963;46.052;14.544;2023-05-10T08:27:57;12.45;;;7.20;;
56181;SDS011;51963;46.052;14.544;2023-05-10T08:30:22;12.75;;;6.35;;
56181;SDS011;51963;46.052;14.544;2023-05-10T08:32:48;11.73;;;6.82;;
56181;SDS011;51963;46.052;14.544;2023-05-10T08:35:13;9.90;;;5.97;;
56181;SDS011;51963;46.052;14.544;2023-05-10T08:37:39;10.93;;;5.07;;
56181;SDS011;51963;46.052;14.544;2023-05-10T08:40:05;12.30;;;6.72;;
56181;SDS011;51963;46.052;14.544;2023-05-10T08:42:31;8.10;;;5.75;;
56181;SDS011;51963;46.052;14.544;2023-05-10T08:45:03;9.20;;;5.03;;
56181;SDS011;51963;46.052;14.544;2023-05-10T08:47:30;10.70;;;5.07;;
56181;SDS011;51963;46.052;14.544;2023-05-10T08:49:56;11.98;;;5.05;;
56181;SDS011;51963;46.052;14.544;2023-05-10T08:52:24;9.65;;;5.40;;
56181;SDS011;51963;46.052;14.544;2023-05-10T08:54:52;9.90;;;5.05;;
56181;SDS011;51963;46.052;14.544;2023-05-10T08:57:18;7.85;;;4.53;;
56181;SDS011;51963;46.052;14.544;2023-05-10T08:59:45;7.00;;;4.55;;
56181;SDS011;51963;46.052;14.544;2023-05-10T09:02:11;8.65;;;5.25;;
56181;SDS011;51963;46.052;14.544;2023-05-10T09:04:42;9.18;;;4.78;;
56181;SDS011;51963;46.052;14.544;2023-05-10T09:07:07;7.00;;;4.75;;
56181;SDS011;51963;46.052;14.544;2023-05-10T09:09:33;6.35;;;4.70;;
56181;SDS011;51963;46.052;14.544;2023-05-10T09:12:00;7.00;;;4.47;;
56181;SDS011;51963;46.052;14.544;2023-05-10T09:14:26;8.55;;;4.80;;
56181;SDS011;51963;46.052;14.544;2023-05-10T09:16:54;10.95;;;4.63;;
56181;SDS011;51963;46.052;14.544;2023-05-10T09:19:21;9.43;;;4.50;;
56181;SDS011;51963;46.052;14.544;2023-05-10T09:21:47;12.07;;;6.30;;
56181;SDS011;51963;46.052;14.544;2023-05-10T09:24:14;10.77;;;5.28;;
56181;SDS011;51963;46.052;14.544;2023-05-10T09:26:46;9.15;;;4.72;;
56181;SDS011;51963;46.052;14.544;2023-05-10T09:29:16;9.32;;;4.53;;
56181;SDS011;51963;46.052;14.544;2023-05-10T09:31:46;9.50;;;4.35;;
56181;SDS011;51963;46.052;14.544;2023-05-10T09:34:17;11.88;;;4.57;;
56181;SDS011;51963;46.052;14.544;2023-05-10T09:36:54;12.15;;;4.88;;
56181;SDS011;51963;46.052;14.544;2023-05-10T09:39:32;7.07;;;4.50;;
56181;SDS011;51963;46.052;14.544;2023-05-10T09:41:59;7.13;;;4.57;;
56181;SDS011;51963;46.052;14.544;2023-05-10T09:44:29;14.80;;;5.28;;
56181;SDS011;51963;46.052;14.544;2023-05-10T09:46:55;7.88;;;4.97;;
56181;SDS011;51963;46.052;14.544;2023-05-10T09:49:21;8.18;;;4.80;;
56181;SDS011;51963;46.052;14.544;2023-05-10T09:51:57;11.38;;;4.65;;
56181;SDS011;51963;46.052;14.544;2023-05-10T09:54:25;10.95;;;4.90;;
56181;SDS011;51963;46.052;14.544;2023-05-10T09:56:51;8.55;;;4.53;;
56181;SDS011;51963;46.052;14.544;2023-05-10T09:59:17;9.77;;;4.40;;
56181;SDS011;51963;46.052;14.544;2023-05-10T10:01:48;11.77;;;5.30;;
56181;SDS011;51963;46.052;14.544;2023-05-10T10:04:15;8.43;;;5.20;;
56181;SDS011;51963;46.052;14.544;2023-05-10T10:06:41;7.50;;;5.22;;
56181;SDS011;51963;46.052;14.544;2023-05-10T10:09:07;9.27;;;5.35;;
56181;SDS011;51963;46.052;14.544;2023-05-10T10:11:34;15.70;;;5.72;;
56181;SDS011;51963;46.052;14.544;2023-05-10T10:14:02;10.80;;;6.03;;
56181;SDS011;51963;46.052;14.544;2023-05-10T10:16:30;10.18;;;5.80;;
56181;SDS011;51963;46.052;14.544;2023-05-10T10:18:58;8.75;;;5.57;;
56181;SDS011;51963;46.052;14.544;2023-05-10T10:21:24;8.73;;;5.07;;
56181;SDS011;51963;46.052;14.544;2023-05-10T10:23:50;10.18;;;5.45;;
56181;SDS011;51963;46.052;14.544;2023-05-10T10:26:17;8.57;;;5.80;;
56181;SDS011;51963;46.052;14.544;2023-05-10T10:29:30;9.57;;;6.10;;
56181;SDS011;51963;46.052;14.544;2023-05-10T10:31:46;9.38;;;5.95;;
56181;SDS011;51963;46.052;14.544;2023-05-10T10:34:26;9.27;;;6.10;;
56181;SDS011;51963;46.052;14.544;2023-05-10T10:36:55;11.13;;;7.15;;
56181;SDS011;51963;46.052;14.544;2023-05-10T10:39:22;14.48;;;7.80;;
56181;SDS011;51963;46.052;14.544;2023-05-10T10:52:18;13.65;;;8.55;;
56181;SDS011;51963;46.052;14.544;2023-05-10T10:55:00;14.93;;;8.00;;
56181;SDS011;51963;46.052;14.544;2023-05-10T10:57:27;12.77;;;8.30;;
56181;SDS011;51963;46.052;14.544;2023-05-10T11:00:17;12.18;;;7.82;;
56181;SDS011;51963;46.052;14.544;2023-05-10T11:02:56;13.32;;;8.02;;
56181;SDS011;51963;46.052;14.544;2023-05-10T11:05:50;13.25;;;8.85;;
56181;SDS011;51963;46.052;14.544;2023-05-10T11:08:34;14.48;;;9.35;;
56181;SDS011;51963;46.052;14.544;2023-05-10T11:11:08;11.73;;;7.78;;
56181;SDS011;51963;46.052;14.544;2023-05-10T11:13:37;13.57;;;8.32;;
56181;SDS011;51963;46.052;14.544;2023-05-10T11:21:23;15.02;;;9.40;;
56181;SDS011;51963;46.052;14.544;2023-05-10T11:23:52;13.98;;;8.50;;
56181;SDS011;51963;46.052;14.544;2023-05-10T11:26:33;15.95;;;8.70;;
56181;SDS011;51963;46.052;14.544;2023-05-10T11:29:00;14.40;;;9.40;;
56181;SDS011;51963;46.052;14.544;2023-05-10T11:31:27;14.15;;;8.70;;
56181;SDS011;51963;46.052;14.544;2023-05-10T11:33:54;14.90;;;9.23;;
56181;SDS011;51963;46.052;14.544;2023-05-10T11:36:26;16.40;;;9.45;;
56181;SDS011;51963;46.052;14.544;2023-05-10T11:38:53;15.77;;;8.88;;
56181;SDS011;51963;46.052;14.544;2023-05-10T11:41:21;16.13;;;9.60;;
56181;SDS011;51963;46.052;14.544;2023-05-10T11:43:52;16.17;;;9.00;;
56181;SDS011;51963;46.052;14.544;2023-05-10T11:46:19;13.80;;;8.95;;
56181;SDS011;51963;46.052;14.544;2023-05-10T11:48:55;12.52;;;8.55;;
56181;SDS011;51963;46.052;14.544;2023-05-10T11:51:23;20.48;;;9.38;;
56181;SDS011;51963;46.052;14.544;2023-05-10T11:53:51;13.63;;;8.80;;
56181;SDS011;51963;46.052;14.544;2023-05-10T11:56:19;13.60;;;8.80;;
56181;SDS011;51963;46.052;14.544;2023-05-10T11:58:52;13.10;;;9.10;;
56181;SDS011;51963;46.052;14.544;2023-05-10T12:01:22;18.15;;;10.07;;
56181;SDS011;51963;46.052;14.544;2023-05-10T12:03:52;18.27;;;10.10;;
56181;SDS011;51963;46.052;14.544;2023-05-10T12:06:19;11.95;;;9.05;;
56181;SDS011;51963;46.052;14.544;2023-05-10T12:08:46;13.13;;;8.48;;
56181;SDS011;51963;46.052;14.544;2023-05-10T12:11:13;14.52;;;8.82;;
56181;SDS011;51963;46.052;14.544;2023-05-10T12:13:41;16.17;;;8.80;;
56181;SDS011;51963;46.052;14.544;2023-05-10T12:16:21;14.57;;;8.88;;
56181;SDS011;51963;46.052;14.544;2023-05-10T12:18:49;15.82;;;9.88;;
56181;SDS011;51963;46.052;14.544;2023-05-10T12:21:17;13.57;;;8.93;;
56181;SDS011;51963;46.052;14.544;2023-05-10T12:23:44;14.68;;;9.05;;
56181;SDS011;51963;46.052;14.544;2023-05-10T12:28:38;16.27;;;9.68;;
56181;SDS011;51963;46.052;14.544;2023-05-10T12:31:05;17.73;;;10.05;;
56181;SDS011;51963;46.052;14.544;2023-05-10T12:33:35;18.65;;;11.45;;
56181;SDS011;51963;46.052;14.544;2023-05-10T12:36:11;19.83;;;11.23;;
56181;SDS011;51963;46.052;14.544;2023-05-10T12:38:40;16.10;;;10.93;;
56181;SDS011;51963;46.052;14.544;2023-05-10T12:41:13;15.70;;;10.55;;
56181;SDS011;51963;46.052;14.544;2023-05-10T12:43:40;20.05;;;10.77;;
56181;SDS011;51963;46.052;14.544;2023-05-10T12:46:13;17.33;;;11.10;;
56181;SDS011;51963;46.052;14.544;2023-05-10T12:48:40;30.05;;;19.27;;
56181;SDS011;51963;46.052;14.544;2023-05-10T12:51:07;24.00;;;12.50;;
56181;SDS011;51963;46.052;14.544;2023-05-10T12:53:35;17.88;;;10.88;;
56181;SDS011;51963;46.052;14.544;2023-05-10T12:56:04;16.50;;;10.48;;
56181;SDS011;51963;46.052;14.544;2023-05-10T12:58:32;19.33;;;10.52;;
56181;SDS011;51963;46.052;14.544;2023-05-10T13:00:58;15.52;;;10.55;;
56181;SDS011;51963;46.052;14.544;2023-05-10T13:03:24;17.23;;;12.00;;
56181;SDS011;51963;46.052;14.544;2023-05-10T13:05:50;17.33;;;11.23;;
56181;SDS011;51963;46.052;14.544;2023-05-10T13:08:16;18.10;;;11.65;;
56181;SDS011;51963;46.052;14.544;2023-05-10T13:10:41;18.05;;;12.00;;
56181;SDS011;51963;46.052;14.544;2023-05-10T13:13:07;18.58;;;12.00;;
56181;SDS011;51963;46.052;14.544;2023-05-10T13:15:34;16.80;;;12.32;;
56181;SDS011;51963;46.052;14.544;2023-05-10T13:18:02;17.52;;;11.27;;
56181;SDS011;51963;46.052;14.544;2023-05-10T13:20:28;19.35;;;12.68;;
56181;SDS011;51963;46.052;14.544;2023-05-10T13:22:54;17.63;;;11.23;;
56181;SDS011;51963;46.052;14.544;2023-05-10T13:25:23;17.88;;;11.35;;
56181;SDS011;51963;46.052;14.544;2023-05-10T13:27:49;17.73;;;12.20;;
56181;SDS011;51963;46.052;14.544;2023-05-10T13:30:14;19.73;;;12.07;;
56181;SDS011;51963;46.052;14.544;2023-05-10T13:32:40;19.20;;;12.30;;
56181;SDS011;51963;46.052;14.544;2023-05-10T13:35:06;21.58;;;12.70;;
56181;SDS011;51963;46.052;14.544;2023-05-10T13:37:33;20.55;;;13.48;;
56181;SDS011;51963;46.052;14.544;2023-05-10T13:40:02;20.42;;;13.00;;
56181;SDS011;51963;46.052;14.544;2023-05-10T13:42:29;16.35;;;11.77;;
56181;SDS011;51963;46.052;14.544;2023-05-10T13:44:56;18.90;;;11.98;;
56181;SDS011;51963;46.052;14.544;2023-05-10T13:47:25;19.45;;;12.15;;
56181;SDS011;51963;46.052;14.544;2023-05-10T13:49:51;17.55;;;11.27;;
56181;SDS011;51963;46.052;14.544;2023-05-10T13:52:19;17.30;;;11.15;;
56181;SDS011;51963;46.052;14.544;2023-05-10T13:54:45;18.02;;;12.45;;
56181;SDS011;51963;46.052;14.544;2023-05-10T13:57:11;16.92;;;12.07;;
56181;SDS011;51963;46.052;14.544;2023-05-10T13:59:39;19.25;;;12.32;;
56181;SDS011;51963;46.052;14.544;2023-05-10T14:02:05;20.98;;;12.43;;
56181;SDS011;51963;46.052;14.544;2023-05-10T14:04:33;22.60;;;12.95;;
56181;SDS011;51963;46.052;14.544;2023-05-10T14:07:00;21.10;;;12.80;;
56181;SDS011;51963;46.052;14.544;2023-05-10T14:09:26;22.15;;;13.55;;
56181;SDS011;51963;46.052;14.544;2023-05-10T14:14:21;20.88;;;13.52;;
56181;SDS011;51963;46.052;14.544;2023-05-10T14:16:47;21.30;;;12.73;;
56181;SDS011;51963;46.052;14.544;2023-05-10T14:19:16;17.70;;;12.63;;
56181;SDS011;51963;46.052;14.544;2023-05-10T14:21:51;18.38;;;12.43;;
56181;SDS011;51963;46.052;14.544;2023-05-10T14:24:17;20.67;;;12.25;;
56181;SDS011;51963;46.052;14.544;2023-05-10T14:26:49;20.92;;;12.77;;
56181;SDS011;51963;46.052;14.544;2023-05-10T14:29:28;18.73;;;12.73;;
56181;SDS011;51963;46.052;14.544;2023-05-10T14:31:54;20.40;;;13.60;;
56181;SDS011;51963;46.052;14.544;2023-05-10T14:34:20;19.70;;;13.88;;
56181;SDS011;51963;46.052;14.544;2023-05-10T14:36:48;20.08;;;13.75;;
56181;SDS011;51963;46.052;14.544;2023-05-10T14:39:15;20.83;;;14.48;;
56181;SDS011;51963;46.052;14.544;2023-05-10T14:41:41;19.90;;;11.25;;
56181;SDS011;51963;46.052;14.544;2023-05-10T14:44:10;18.45;;;12.68;;
56181;SDS011;51963;46.052;14.544;2023-05-10T14:46:38;18.83;;;12.93;;
56181;SDS011;51963;46.052;14.544;2023-05-10T14:49:07;23.42;;;14.55;;
56181;SDS011;51963;46.052;14.544;2023-05-10T14:51:33;20.52;;;13.27;;
56181;SDS011;51963;46.052;14.544;2023-05-10T14:53:59;19.85;;;13.18;;
56181;SDS011;51963;46.052;14.544;2023-05-10T14:56:26;15.95;;;11.70;;
56181;SDS011;51963;46.052;14.544;2023-05-10T14:58:53;16.38;;;11.00;;
56181;SDS011;51963;46.052;14.544;2023-05-10T15:01:24;15.85;;;11.05;;
56181;SDS011;51963;46.052;14.544;2023-05-10T15:03:53;17.33;;;12.00;;
56181;SDS011;51963;46.052;14.544;2023-05-10T15:06:22;15.30;;;11.07;;
56181;SDS011;51963;46.052;14.544;2023-05-10T15:08:49;18.33;;;11.52;;
56181;SDS011;51963;46.052;14.544;2023-05-10T15:11:14;18.05;;;12.77;;
56181;SDS011;51963;46.052;14.544;2023-05-10T15:13:40;19.23;;;12.57;;